sensor_id;sensor_type;location;lat;lon;timestamp;P1;durP1;ratioP1;P2;durP2;ratioP2
50781;SDS011;36749;37.428;-121.972;2023-03-19T00:02:24;11.23;;;5.82;;
50781;SDS011;36749;37.428;-121.972;2023-03-19T00:04:50;10.50;;;4.95;;
50781;SDS011;36749;37.428;-121.972;2023-03-19T00:07:18;9.00;;;4.82;;
50781;SDS011;36749;37.428;-121.972;2023-03-19T00:09:44;14.20;;;5.65;;
50781;SDS011;36749;37.428;-121.972;2023-03-19T00:12:12;13.07;;;6.30;;
50781;SDS011;36749;37.428;-121.972;2023-03-19T00:14:39;17.00;;;6.38;;
50781;SDS011;36749;37.428;-121.972;2023-03-19T00:17:05;10.85;;;6.00;;
50781;SDS011;36749;37.428;-121.972;2023-03-19T00:19:31;12.27;;;5.82;;
50781;SDS011;36749;37.428;-121.972;2023-03-19T00:21:57;13.38;;;5.53;;
50781;SDS011;36749;37.428;-121.972;2023-03-19T00:24:24;12.10;;;5.07;;
50781;SDS011;36749;37.428;-121.972;2023-03-19T00:26:50;14.35;;;6.35;;
50781;SDS011;36749;37.428;-121.972;2023-03-19T00:29:16;13.85;;;5.00;;
50781;SDS011;36749;37.428;-121.972;2023-03-19T00:31:42;17.00;;;6.55;;
50781;SDS011;36749;37.428;-121.972;2023-03-19T00:34:10;14.02;;;6.70;;
50781;SDS011;36749;37.428;-121.972;2023-03-19T00:36:37;15.80;;;6.70;;
50781;SDS011;36749;37.428;-121.972;2023-03-19T00:39:04;15.23;;;7.22;;
50781;SDS011;36749;37.428;-121.972;2023-03-19T00:41:31;17.70;;;6.07;;
50781;SDS011;36749;37.428;-121.972;2023-03-19T00:43:58;25.50;;;7.57;;
50781;SDS011;36749;37.428;-121.972;2023-03-19T00:46:24;18.17;;;6.13;;
50781;SDS011;36749;37.428;-121.972;2023-03-19T00:48:51;15.77;;;6.28;;
50781;SDS011;36749;37.428;-121.972;2023-03-19T00:51:20;11.18;;;5.75;;
50781;SDS011;36749;37.428;-121.972;2023-03-19T00:53:47;14.48;;;6.78;;
50781;SDS011;36749;37.428;-121.972;2023-03-19T00:56:14;13.98;;;6.90;;
50781;SDS011;36749;37.428;-121.972;2023-03-19T00:58:42;11.35;;;5.85;;
50781;SDS011;36749;37.428;-121.972;2023-03-19T01:01:09;17.35;;;6.97;;
50781;SDS011;36749;37.428;-121.972;2023-03-19T01:03:37;15.63;;;7.47;;
50781;SDS011;36749;37.428;-121.972;2023-03-19T01:06:04;19.00;;;8.52;;
50781;SDS011;36749;37.428;-121.972;2023-03-19T01:08:31;23.95;;;9.77;;
50781;SDS011;36749;37.428;-121.972;2023-03-19T01:11:03;17.05;;;8.25;;
50781;SDS011;36749;37.428;-121.972;2023-03-19T01:15:57;18.65;;;9.95;;
50781;SDS011;36749;37.428;-121.972;2023-03-19T01:18:23;21.48;;;9.60;;
50781;SDS011;36749;37.428;-121.972;2023-03-19T01:20:49;20.98;;;9.93;;
50781;SDS011;36749;37.428;-121.972;2023-03-19T01:23:15;16.13;;;8.23;;
50781;SDS011;36749;37.428;-121.972;2023-03-19T01:25:42;13.93;;;7.93;;
50781;SDS011;36749;37.428;-121.972;2023-03-19T01:28:08;17.10;;;8.80;;
50781;SDS011;36749;37.428;-121.972;2023-03-19T01:30:37;20.77;;;8.00;;
50781;SDS011;36749;37.428;-121.972;2023-03-19T01:33:05;14.93;;;7.63;;
50781;SDS011;36749;37.428;-121.972;2023-03-19T01:35:32;19.23;;;9.30;;
50781;SDS011;36749;37.428;-121.972;2023-03-19T01:37:58;16.58;;;8.63;;
50781;SDS011;36749;37.428;-121.972;2023-03-19T01:40:24;17.45;;;9.45;;
50781;SDS011;36749;37.428;-121.972;2023-03-19T01:43:11;15.07;;;8.38;;
50781;SDS011;36749;37.428;-121.972;2023-03-19T01:45:40;17.17;;;8.60;;
50781;SDS011;36749;37.428;-121.972;2023-03-19T01:48:15;15.10;;;9.43;;
50781;SDS011;36749;37.428;-121.972;2023-03-19T01:51:05;14.65;;;8.30;;
50781;SDS011;36749;37.428;-121.972;2023-03-19T01:53:34;15.32;;;8.57;;
50781;SDS011;36749;37.428;-121.972;2023-03-19T01:56:11;16.70;;;8.52;;
50781;SDS011;36749;37.428;-121.972;2023-03-19T01:58:39;14.70;;;7.50;;
50781;SDS011;36749;37.428;-121.972;2023-03-19T02:01:07;15.55;;;8.88;;
50781;SDS011;36749;37.428;-121.972;2023-03-19T02:03:33;13.70;;;7.07;;
50781;SDS011;36749;37.428;-121.972;2023-03-19T02:06:00;16.92;;;7.63;;
50781;SDS011;36749;37.428;-121.972;2023-03-19T02:08:27;15.82;;;7.65;;
50781;SDS011;36749;37.428;-121.972;2023-03-19T02:10:54;13.93;;;6.78;;
50781;SDS011;36749;37.428;-121.972;2023-03-19T02:13:21;15.73;;;7.00;;
50781;SDS011;36749;37.428;-121.972;2023-03-19T02:15:48;13.77;;;7.05;;
50781;SDS011;36749;37.428;-121.972;2023-03-19T02:18:15;14.48;;;6.82;;
50781;SDS011;36749;37.428;-121.972;2023-03-19T02:20:56;12.52;;;6.10;;
50781;SDS011;36749;37.428;-121.972;2023-03-19T02:28:32;5.82;;;3.38;;
50781;SDS011;36749;37.428;-121.972;2023-03-19T02:30:59;8.00;;;2.60;;
50781;SDS011;36749;37.428;-121.972;2023-03-19T02:33:27;9.00;;;3.25;;
50781;SDS011;36749;37.428;-121.972;2023-03-19T02:35:53;7.40;;;2.92;;
50781;SDS011;36749;37.428;-121.972;2023-03-19T02:38:20;7.30;;;3.30;;
50781;SDS011;36749;37.428;-121.972;2023-03-19T02:40:48;6.07;;;2.50;;
50781;SDS011;36749;37.428;-121.972;2023-03-19T02:43:31;8.10;;;3.23;;
50781;SDS011;36749;37.428;-121.972;2023-03-19T02:45:59;10.32;;;3.30;;
50781;SDS011;36749;37.428;-121.972;2023-03-19T02:48:26;7.40;;;2.60;;
50781;SDS011;36749;37.428;-121.972;2023-03-19T02:50:52;8.93;;;2.92;;
50781;SDS011;36749;37.428;-121.972;2023-03-19T02:53:19;5.90;;;2.80;;
50781;SDS011;36749;37.428;-121.972;2023-03-19T02:55:45;6.63;;;2.90;;
50781;SDS011;36749;37.428;-121.972;2023-03-19T02:58:11;5.15;;;3.20;;
50781;SDS011;36749;37.428;-121.972;2023-03-19T03:00:37;7.28;;;2.92;;
50781;SDS011;36749;37.428;-121.972;2023-03-19T03:03:04;10.18;;;3.00;;
50781;SDS011;36749;37.428;-121.972;2023-03-19T03:05:32;7.40;;;3.30;;
50781;SDS011;36749;37.428;-121.972;2023-03-19T03:07:58;10.15;;;2.88;;
50781;SDS011;36749;37.428;-121.972;2023-03-19T03:10:25;6.07;;;2.85;;
50781;SDS011;36749;37.428;-121.972;2023-03-19T03:12:51;9.57;;;3.08;;
50781;SDS011;36749;37.428;-121.972;2023-03-19T03:15:18;4.28;;;2.83;;
50781;SDS011;36749;37.428;-121.972;2023-03-19T03:17:44;5.68;;;2.65;;
50781;SDS011;36749;37.428;-121.972;2023-03-19T03:20:11;8.30;;;2.60;;
50781;SDS011;36749;37.428;-121.972;2023-03-19T03:22:38;5.32;;;3.15;;
50781;SDS011;36749;37.428;-121.972;2023-03-19T03:25:05;10.20;;;2.60;;
50781;SDS011;36749;37.428;-121.972;2023-03-19T03:27:32;10.77;;;2.85;;
50781;SDS011;36749;37.428;-121.972;2023-03-19T03:29:58;5.70;;;2.70;;
50781;SDS011;36749;37.428;-121.972;2023-03-19T03:32:24;5.88;;;2.70;;
50781;SDS011;36749;37.428;-121.972;2023-03-19T03:34:50;6.72;;;2.58;;
50781;SDS011;36749;37.428;-121.972;2023-03-19T03:37:17;4.97;;;2.60;;
50781;SDS011;36749;37.428;-121.972;2023-03-19T03:39:43;6.93;;;3.10;;
50781;SDS011;36749;37.428;-121.972;2023-03-19T03:42:10;5.82;;;3.00;;
50781;SDS011;36749;37.428;-121.972;2023-03-19T03:44:36;5.22;;;3.00;;
50781;SDS011;36749;37.428;-121.972;2023-03-19T03:47:03;8.80;;;3.10;;
50781;SDS011;36749;37.428;-121.972;2023-03-19T03:49:29;7.60;;;2.65;;
50781;SDS011;36749;37.428;-121.972;2023-03-19T03:51:55;3.90;;;2.63;;
50781;SDS011;36749;37.428;-121.972;2023-03-19T03:54:22;7.35;;;2.67;;
50781;SDS011;36749;37.428;-121.972;2023-03-19T03:56:48;6.28;;;2.55;;
50781;SDS011;36749;37.428;-121.972;2023-03-19T03:59:15;4.68;;;2.85;;
50781;SDS011;36749;37.428;-121.972;2023-03-19T04:01:41;6.40;;;2.72;;
50781;SDS011;36749;37.428;-121.972;2023-03-19T04:04:07;4.05;;;2.38;;
50781;SDS011;36749;37.428;-121.972;2023-03-19T04:06:34;8.20;;;3.08;;
50781;SDS011;36749;37.428;-121.972;2023-03-19T04:09:00;9.95;;;3.20;;
50781;SDS011;36749;37.428;-121.972;2023-03-19T04:11:27;7.03;;;2.80;;
50781;SDS011;36749;37.428;-121.972;2023-03-19T04:13:54;9.93;;;2.92;;
50781;SDS011;36749;37.428;-121.972;2023-03-19T04:16:22;5.22;;;2.80;;
50781;SDS011;36749;37.428;-121.972;2023-03-19T04:18:48;6.25;;;3.20;;
50781;SDS011;36749;37.428;-121.972;2023-03-19T04:21:14;7.32;;;3.42;;
50781;SDS011;36749;37.428;-121.972;2023-03-19T04:23:41;7.50;;;3.38;;
50781;SDS011;36749;37.428;-121.972;2023-03-19T04:26:07;9.05;;;2.83;;
50781;SDS011;36749;37.428;-121.972;2023-03-19T04:28:34;5.53;;;2.90;;
50781;SDS011;36749;37.428;-121.972;2023-03-19T04:31:02;7.05;;;2.90;;
50781;SDS011;36749;37.428;-121.972;2023-03-19T04:33:32;8.38;;;3.17;;
50781;SDS011;36749;37.428;-121.972;2023-03-19T04:35:59;6.32;;;3.20;;
50781;SDS011;36749;37.428;-121.972;2023-03-19T04:38:25;6.80;;;3.05;;
50781;SDS011;36749;37.428;-121.972;2023-03-19T04:40:52;6.45;;;3.00;;
50781;SDS011;36749;37.428;-121.972;2023-03-19T04:43:19;8.20;;;3.50;;
50781;SDS011;36749;37.428;-121.972;2023-03-19T04:45:45;8.85;;;3.47;;
50781;SDS011;36749;37.428;-121.972;2023-03-19T04:48:11;10.18;;;4.15;;
50781;SDS011;36749;37.428;-121.972;2023-03-19T04:50:37;9.98;;;3.75;;
50781;SDS011;36749;37.428;-121.972;2023-03-19T04:53:04;12.40;;;3.67;;
50781;SDS011;36749;37.428;-121.972;2023-03-19T04:55:31;12.70;;;3.63;;
50781;SDS011;36749;37.428;-121.972;2023-03-19T04:57:57;5.45;;;3.25;;
50781;SDS011;36749;37.428;-121.972;2023-03-19T05:00:23;8.23;;;3.33;;
50781;SDS011;36749;37.428;-121.972;2023-03-19T05:02:50;7.97;;;3.30;;
50781;SDS011;36749;37.428;-121.972;2023-03-19T05:05:16;6.82;;;3.13;;
50781;SDS011;36749;37.428;-121.972;2023-03-19T05:07:42;9.70;;;3.67;;
50781;SDS011;36749;37.428;-121.972;2023-03-19T05:10:09;6.25;;;3.55;;
50781;SDS011;36749;37.428;-121.972;2023-03-19T05:12:35;9.15;;;3.03;;
50781;SDS011;36749;37.428;-121.972;2023-03-19T05:15:02;8.50;;;3.50;;
50781;SDS011;36749;37.428;-121.972;2023-03-19T05:17:29;10.07;;;3.40;;
50781;SDS011;36749;37.428;-121.972;2023-03-19T05:19:56;6.93;;;2.95;;
50781;SDS011;36749;37.428;-121.972;2023-03-19T05:22:22;9.88;;;3.50;;
50781;SDS011;36749;37.428;-121.972;2023-03-19T05:24:49;7.85;;;3.17;;
50781;SDS011;36749;37.428;-121.972;2023-03-19T05:27:15;8.05;;;3.50;;
50781;SDS011;36749;37.428;-121.972;2023-03-19T05:29:41;9.50;;;3.28;;
50781;SDS011;36749;37.428;-121.972;2023-03-19T05:32:08;10.10;;;3.80;;
50781;SDS011;36749;37.428;-121.972;2023-03-19T05:34:34;7.68;;;3.00;;
50781;SDS011;36749;37.428;-121.972;2023-03-19T05:37:01;5.70;;;2.88;;
50781;SDS011;36749;37.428;-121.972;2023-03-19T05:39:28;6.88;;;3.38;;
50781;SDS011;36749;37.428;-121.972;2023-03-19T05:41:54;9.43;;;3.65;;
50781;SDS011;36749;37.428;-121.972;2023-03-19T05:44:20;8.30;;;3.00;;
50781;SDS011;36749;37.428;-121.972;2023-03-19T05:46:46;9.40;;;3.65;;
50781;SDS011;36749;37.428;-121.972;2023-03-19T05:49:13;7.20;;;3.33;;
50781;SDS011;36749;37.428;-121.972;2023-03-19T05:51:39;14.05;;;3.80;;
50781;SDS011;36749;37.428;-121.972;2023-03-19T05:54:05;7.15;;;3.17;;
50781;SDS011;36749;37.428;-121.972;2023-03-19T05:56:32;9.93;;;2.95;;
50781;SDS011;36749;37.428;-121.972;2023-03-19T05:58:58;8.55;;;3.15;;
50781;SDS011;36749;37.428;-121.972;2023-03-19T06:01:24;10.15;;;3.65;;
50781;SDS011;36749;37.428;-121.972;2023-03-19T06:03:50;7.15;;;2.88;;
50781;SDS011;36749;37.428;-121.972;2023-03-19T06:06:17;5.47;;;2.85;;
50781;SDS011;36749;37.428;-121.972;2023-03-19T06:08:43;9.60;;;2.95;;
50781;SDS011;36749;37.428;-121.972;2023-03-19T06:11:09;9.80;;;3.45;;
50781;SDS011;36749;37.428;-121.972;2023-03-19T06:13:35;6.72;;;3.17;;
50781;SDS011;36749;37.428;-121.972;2023-03-19T06:16:02;8.38;;;2.60;;
50781;SDS011;36749;37.428;-121.972;2023-03-19T06:18:28;12.63;;;3.30;;
50781;SDS011;36749;37.428;-121.972;2023-03-19T06:20:55;6.88;;;3.28;;
50781;SDS011;36749;37.428;-121.972;2023-03-19T06:23:21;7.38;;;2.83;;
50781;SDS011;36749;37.428;-121.972;2023-03-19T06:25:47;8.20;;;2.58;;
50781;SDS011;36749;37.428;-121.972;2023-03-19T06:28:13;6.82;;;3.05;;
50781;SDS011;36749;37.428;-121.972;2023-03-19T06:30:39;9.68;;;3.30;;
50781;SDS011;36749;37.428;-121.972;2023-03-19T06:33:06;10.20;;;3.20;;
50781;SDS011;36749;37.428;-121.972;2023-03-19T06:35:32;10.88;;;3.65;;
50781;SDS011;36749;37.428;-121.972;2023-03-19T06:37:58;7.70;;;3.17;;
50781;SDS011;36749;37.428;-121.972;2023-03-19T06:40:24;6.53;;;3.03;;
50781;SDS011;36749;37.428;-121.972;2023-03-19T06:42:51;13.18;;;3.50;;
50781;SDS011;36749;37.428;-121.972;2023-03-19T06:45:17;12.25;;;3.90;;
50781;SDS011;36749;37.428;-121.972;2023-03-19T06:47:44;14.07;;;3.50;;
50781;SDS011;36749;37.428;-121.972;2023-03-19T06:50:14;8.18;;;3.45;;
50781;SDS011;36749;37.428;-121.972;2023-03-19T06:52:41;11.95;;;3.95;;
50781;SDS011;36749;37.428;-121.972;2023-03-19T06:55:07;15.13;;;3.42;;
50781;SDS011;36749;37.428;-121.972;2023-03-19T06:57:34;14.90;;;4.18;;
50781;SDS011;36749;37.428;-121.972;2023-03-19T07:00:00;9.23;;;3.67;;
50781;SDS011;36749;37.428;-121.972;2023-03-19T07:02:27;12.80;;;4.18;;
50781;SDS011;36749;37.428;-121.972;2023-03-19T07:04:53;10.80;;;3.63;;
50781;SDS011;36749;37.428;-121.972;2023-03-19T07:07:19;8.88;;;4.03;;
50781;SDS011;36749;37.428;-121.972;2023-03-19T07:09:45;12.63;;;4.05;;
50781;SDS011;36749;37.428;-121.972;2023-03-19T07:12:11;14.65;;;4.15;;
50781;SDS011;36749;37.428;-121.972;2023-03-19T07:14:38;12.77;;;3.63;;
50781;SDS011;36749;37.428;-121.972;2023-03-19T07:17:04;14.55;;;4.65;;
50781;SDS011;36749;37.428;-121.972;2023-03-19T07:19:30;12.43;;;4.15;;
50781;SDS011;36749;37.428;-121.972;2023-03-19T07:21:56;13.57;;;4.32;;
50781;SDS011;36749;37.428;-121.972;2023-03-19T07:24:22;12.82;;;4.25;;
50781;SDS011;36749;37.428;-121.972;2023-03-19T07:26:49;8.35;;;3.45;;
50781;SDS011;36749;37.428;-121.972;2023-03-19T07:29:16;11.40;;;4.38;;
50781;SDS011;36749;37.428;-121.972;2023-03-19T07:31:42;12.63;;;3.30;;
50781;SDS011;36749;37.428;-121.972;2023-03-19T07:34:08;8.75;;;3.40;;
50781;SDS011;36749;37.428;-121.972;2023-03-19T07:36:34;9.45;;;3.83;;
50781;SDS011;36749;37.428;-121.972;2023-03-19T07:39:00;12.93;;;3.45;;
50781;SDS011;36749;37.428;-121.972;2023-03-19T07:41:28;12.10;;;4.47;;
50781;SDS011;36749;37.428;-121.972;2023-03-19T07:43:54;14.95;;;3.60;;
50781;SDS011;36749;37.428;-121.972;2023-03-19T07:46:20;7.40;;;3.75;;
50781;SDS011;36749;37.428;-121.972;2023-03-19T07:48:46;10.38;;;4.20;;
50781;SDS011;36749;37.428;-121.972;2023-03-19T07:51:12;10.70;;;3.70;;
50781;SDS011;36749;37.428;-121.972;2023-03-19T07:53:38;10.63;;;3.75;;
50781;SDS011;36749;37.428;-121.972;2023-03-19T07:56:05;8.50;;;3.47;;
50781;SDS011;36749;37.428;-121.972;2023-03-19T07:58:31;8.45;;;4.03;;
50781;SDS011;36749;37.428;-121.972;2023-03-19T08:00:58;9.60;;;4.00;;
50781;SDS011;36749;37.428;-121.972;2023-03-19T08:03:24;11.45;;;3.60;;
50781;SDS011;36749;37.428;-121.972;2023-03-19T08:05:50;10.18;;;3.30;;
50781;SDS011;36749;37.428;-121.972;2023-03-19T08:08:16;13.60;;;3.97;;
50781;SDS011;36749;37.428;-121.972;2023-03-19T08:10:43;11.52;;;3.65;;
50781;SDS011;36749;37.428;-121.972;2023-03-19T08:13:09;18.23;;;4.25;;
50781;SDS011;36749;37.428;-121.972;2023-03-19T08:15:36;12.75;;;4.22;;
50781;SDS011;36749;37.428;-121.972;2023-03-19T08:18:02;10.23;;;3.40;;
50781;SDS011;36749;37.428;-121.972;2023-03-19T08:20:29;12.00;;;3.75;;
50781;SDS011;36749;37.428;-121.972;2023-03-19T08:22:56;9.10;;;3.50;;
50781;SDS011;36749;37.428;-121.972;2023-03-19T08:25:22;12.52;;;4.07;;
50781;SDS011;36749;37.428;-121.972;2023-03-19T08:27:50;10.38;;;3.10;;
50781;SDS011;36749;37.428;-121.972;2023-03-19T08:30:16;10.65;;;3.53;;
50781;SDS011;36749;37.428;-121.972;2023-03-19T08:32:42;10.70;;;3.60;;
50781;SDS011;36749;37.428;-121.972;2023-03-19T08:35:13;10.63;;;4.07;;
50781;SDS011;36749;37.428;-121.972;2023-03-19T08:37:40;10.43;;;3.47;;
50781;SDS011;36749;37.428;-121.972;2023-03-19T08:40:06;9.75;;;4.25;;
50781;SDS011;36749;37.428;-121.972;2023-03-19T08:42:33;12.23;;;4.20;;
50781;SDS011;36749;37.428;-121.972;2023-03-19T08:44:59;14.05;;;3.75;;
50781;SDS011;36749;37.428;-121.972;2023-03-19T08:47:25;11.77;;;4.47;;
50781;SDS011;36749;37.428;-121.972;2023-03-19T08:49:51;10.20;;;4.72;;
50781;SDS011;36749;37.428;-121.972;2023-03-19T08:52:18;12.55;;;4.65;;
50781;SDS011;36749;37.428;-121.972;2023-03-19T08:54:45;10.65;;;4.32;;
50781;SDS011;36749;37.428;-121.972;2023-03-19T08:57:11;9.68;;;3.67;;
50781;SDS011;36749;37.428;-121.972;2023-03-19T08:59:37;12.07;;;4.80;;
50781;SDS011;36749;37.428;-121.972;2023-03-19T09:02:03;9.65;;;3.70;;
50781;SDS011;36749;37.428;-121.972;2023-03-19T09:04:30;11.48;;;4.28;;
50781;SDS011;36749;37.428;-121.972;2023-03-19T09:07:00;7.35;;;3.33;;
50781;SDS011;36749;37.428;-121.972;2023-03-19T09:09:27;10.23;;;3.85;;
50781;SDS011;36749;37.428;-121.972;2023-03-19T09:11:53;11.82;;;3.75;;
50781;SDS011;36749;37.428;-121.972;2023-03-19T09:14:20;7.45;;;3.20;;
50781;SDS011;36749;37.428;-121.972;2023-03-19T09:16:47;6.32;;;3.13;;
50781;SDS011;36749;37.428;-121.972;2023-03-19T09:19:13;4.25;;;2.50;;
50781;SDS011;36749;37.428;-121.972;2023-03-19T09:21:40;6.30;;;3.22;;
50781;SDS011;36749;37.428;-121.972;2023-03-19T09:24:06;7.25;;;2.80;;
50781;SDS011;36749;37.428;-121.972;2023-03-19T09:26:33;4.60;;;2.88;;
50781;SDS011;36749;37.428;-121.972;2023-03-19T09:29:00;8.07;;;3.10;;
50781;SDS011;36749;37.428;-121.972;2023-03-19T09:31:26;5.97;;;2.90;;
50781;SDS011;36749;37.428;-121.972;2023-03-19T09:33:52;8.80;;;3.83;;
50781;SDS011;36749;37.428;-121.972;2023-03-19T09:36:18;9.25;;;3.10;;
50781;SDS011;36749;37.428;-121.972;2023-03-19T09:38:45;6.18;;;2.65;;
50781;SDS011;36749;37.428;-121.972;2023-03-19T09:43:57;7.28;;;2.80;;
50781;SDS011;36749;37.428;-121.972;2023-03-19T09:46:28;6.32;;;2.95;;
50781;SDS011;36749;37.428;-121.972;2023-03-19T09:49:09;4.30;;;3.08;;
50781;SDS011;36749;37.428;-121.972;2023-03-19T09:51:46;7.38;;;2.97;;
50781;SDS011;36749;37.428;-121.972;2023-03-19T09:54:55;10.35;;;4.28;;
50781;SDS011;36749;37.428;-121.972;2023-03-19T09:57:23;9.45;;;3.08;;
50781;SDS011;36749;37.428;-121.972;2023-03-19T09:59:50;7.15;;;2.90;;
50781;SDS011;36749;37.428;-121.972;2023-03-19T10:04:55;6.32;;;2.85;;
50781;SDS011;36749;37.428;-121.972;2023-03-19T10:07:36;5.50;;;2.55;;
50781;SDS011;36749;37.428;-121.972;2023-03-19T10:13:17;4.00;;;3.03;;
50781;SDS011;36749;37.428;-121.972;2023-03-19T10:15:48;10.90;;;3.47;;
50781;SDS011;36749;37.428;-121.972;2023-03-19T10:18:16;8.23;;;2.95;;
50781;SDS011;36749;37.428;-121.972;2023-03-19T10:20:55;9.07;;;3.17;;
50781;SDS011;36749;37.428;-121.972;2023-03-19T10:26:23;9.23;;;3.10;;
50781;SDS011;36749;37.428;-121.972;2023-03-19T10:29:01;7.78;;;3.08;;
50781;SDS011;36749;37.428;-121.972;2023-03-19T10:37:00;7.30;;;3.38;;
50781;SDS011;36749;37.428;-121.972;2023-03-19T10:39:35;9.05;;;3.30;;
50781;SDS011;36749;37.428;-121.972;2023-03-19T10:45:08;8.55;;;3.92;;
50781;SDS011;36749;37.428;-121.972;2023-03-19T10:47:35;8.20;;;3.08;;
50781;SDS011;36749;37.428;-121.972;2023-03-19T10:50:03;7.72;;;3.75;;
50781;SDS011;36749;37.428;-121.972;2023-03-19T10:52:31;7.53;;;3.33;;
50781;SDS011;36749;37.428;-121.972;2023-03-19T10:55:15;9.18;;;3.60;;
50781;SDS011;36749;37.428;-121.972;2023-03-19T10:57:43;7.03;;;3.27;;
50781;SDS011;36749;37.428;-121.972;2023-03-19T11:00:16;9.40;;;3.17;;
50781;SDS011;36749;37.428;-121.972;2023-03-19T11:02:47;8.65;;;3.65;;
50781;SDS011;36749;37.428;-121.972;2023-03-19T11:07:56;7.38;;;3.17;;
50781;SDS011;36749;37.428;-121.972;2023-03-19T11:10:30;7.37;;;3.13;;
50781;SDS011;36749;37.428;-121.972;2023-03-19T11:12:59;10.52;;;3.63;;
50781;SDS011;36749;37.428;-121.972;2023-03-19T11:15:45;7.93;;;2.97;;
50781;SDS011;36749;37.428;-121.972;2023-03-19T11:18:20;7.68;;;2.83;;
50781;SDS011;36749;37.428;-121.972;2023-03-19T11:20:49;6.88;;;2.90;;
50781;SDS011;36749;37.428;-121.972;2023-03-19T11:23:30;7.20;;;2.90;;
50781;SDS011;36749;37.428;-121.972;2023-03-19T11:26:04;8.05;;;3.00;;
50781;SDS011;36749;37.428;-121.972;2023-03-19T11:28:31;5.82;;;2.85;;
50781;SDS011;36749;37.428;-121.972;2023-03-19T11:39:09;5.05;;;3.05;;
50781;SDS011;36749;37.428;-121.972;2023-03-19T11:47:55;5.75;;;2.88;;
50781;SDS011;36749;37.428;-121.972;2023-03-19T11:52:52;5.13;;;2.60;;
50781;SDS011;36749;37.428;-121.972;2023-03-19T11:55:30;10.30;;;3.25;;
50781;SDS011;36749;37.428;-121.972;2023-03-19T12:00:48;7.30;;;3.50;;
50781;SDS011;36749;37.428;-121.972;2023-03-19T12:03:41;5.28;;;2.50;;
50781;SDS011;36749;37.428;-121.972;2023-03-19T12:17:49;7.03;;;2.70;;
50781;SDS011;36749;37.428;-121.972;2023-03-19T12:25:59;6.68;;;2.83;;
50781;SDS011;36749;37.428;-121.972;2023-03-19T12:28:32;5.47;;;3.22;;
50781;SDS011;36749;37.428;-121.972;2023-03-19T12:31:25;8.27;;;2.80;;
50781;SDS011;36749;37.428;-121.972;2023-03-19T12:36:47;5.97;;;2.97;;
50781;SDS011;36749;37.428;-121.972;2023-03-19T12:39:36;8.98;;;3.00;;
50781;SDS011;36749;37.428;-121.972;2023-03-19T12:42:06;7.55;;;2.97;;
50781;SDS011;36749;37.428;-121.972;2023-03-19T12:44:48;7.22;;;2.92;;
50781;SDS011;36749;37.428;-121.972;2023-03-19T12:47:25;6.25;;;2.90;;
50781;SDS011;36749;37.428;-121.972;2023-03-19T12:50:00;9.98;;;3.55;;
50781;SDS011;36749;37.428;-121.972;2023-03-19T12:52:39;6.95;;;3.25;;
50781;SDS011;36749;37.428;-121.972;2023-03-19T12:55:20;7.07;;;3.25;;
50781;SDS011;36749;37.428;-121.972;2023-03-19T12:58:22;8.18;;;2.78;;
50781;SDS011;36749;37.428;-121.972;2023-03-19T13:00:59;9.02;;;3.70;;
50781;SDS011;36749;37.428;-121.972;2023-03-19T13:03:53;9.48;;;3.10;;
50781;SDS011;36749;37.428;-121.972;2023-03-19T13:06:35;6.25;;;3.38;;
50781;SDS011;36749;37.428;-121.972;2023-03-19T13:09:38;7.88;;;3.50;;
50781;SDS011;36749;37.428;-121.972;2023-03-19T13:19:50;10.52;;;3.33;;
50781;SDS011;36749;37.428;-121.972;2023-03-19T13:22:22;6.43;;;3.17;;
50781;SDS011;36749;37.428;-121.972;2023-03-19T13:24:53;8.13;;;3.20;;
50781;SDS011;36749;37.428;-121.972;2023-03-19T13:27:25;6.18;;;3.03;;
50781;SDS011;36749;37.428;-121.972;2023-03-19T13:32:48;6.93;;;3.03;;
50781;SDS011;36749;37.428;-121.972;2023-03-19T13:41:00;6.03;;;2.97;;
50781;SDS011;36749;37.428;-121.972;2023-03-19T13:46:01;4.60;;;2.70;;
50781;SDS011;36749;37.428;-121.972;2023-03-19T13:51:04;3.90;;;2.50;;
50781;SDS011;36749;37.428;-121.972;2023-03-19T13:56:55;6.85;;;3.20;;
50781;SDS011;36749;37.428;-121.972;2023-03-19T13:59:31;4.00;;;2.75;;
50781;SDS011;36749;37.428;-121.972;2023-03-19T14:02:01;9.48;;;3.38;;
50781;SDS011;36749;37.428;-121.972;2023-03-19T14:05:03;5.93;;;2.92;;
50781;SDS011;36749;37.428;-121.972;2023-03-19T14:12:30;5.13;;;3.10;;
50781;SDS011;36749;37.428;-121.972;2023-03-19T14:15:47;4.82;;;2.80;;
50781;SDS011;36749;37.428;-121.972;2023-03-19T14:25:56;5.32;;;2.75;;
50781;SDS011;36749;37.428;-121.972;2023-03-19T14:28:37;4.45;;;2.90;;
50781;SDS011;36749;37.428;-121.972;2023-03-19T14:31:42;7.13;;;3.55;;
50781;SDS011;36749;37.428;-121.972;2023-03-19T14:34:19;5.47;;;3.10;;
50781;SDS011;36749;37.428;-121.972;2023-03-19T14:37:00;4.95;;;3.00;;
50781;SDS011;36749;37.428;-121.972;2023-03-19T14:39:32;6.10;;;2.72;;
50781;SDS011;36749;37.428;-121.972;2023-03-19T14:47:50;5.57;;;3.05;;
50781;SDS011;36749;37.428;-121.972;2023-03-19T14:53:21;9.18;;;3.10;;
50781;SDS011;36749;37.428;-121.972;2023-03-19T14:56:31;6.35;;;3.28;;
50781;SDS011;36749;37.428;-121.972;2023-03-19T14:58:59;4.95;;;2.50;;
50781;SDS011;36749;37.428;-121.972;2023-03-19T15:01:28;6.90;;;2.50;;
50781;SDS011;36749;37.428;-121.972;2023-03-19T15:03:59;7.22;;;2.80;;
50781;SDS011;36749;37.428;-121.972;2023-03-19T15:06:50;4.13;;;2.45;;
50781;SDS011;36749;37.428;-121.972;2023-03-19T15:09:28;4.50;;;2.40;;
50781;SDS011;36749;37.428;-121.972;2023-03-19T15:18:13;4.85;;;2.55;;
50781;SDS011;36749;37.428;-121.972;2023-03-19T15:20:41;6.43;;;2.97;;
50781;SDS011;36749;37.428;-121.972;2023-03-19T15:23:10;7.88;;;2.97;;
50781;SDS011;36749;37.428;-121.972;2023-03-19T15:25:45;3.97;;;2.60;;
50781;SDS011;36749;37.428;-121.972;2023-03-19T15:28:22;4.85;;;2.70;;
50781;SDS011;36749;37.428;-121.972;2023-03-19T15:30:57;6.60;;;2.67;;
50781;SDS011;36749;37.428;-121.972;2023-03-19T15:33:31;6.25;;;2.67;;
50781;SDS011;36749;37.428;-121.972;2023-03-19T15:36:04;5.47;;;2.80;;
50781;SDS011;36749;37.428;-121.972;2023-03-19T15:38:51;4.35;;;2.60;;
50781;SDS011;36749;37.428;-121.972;2023-03-19T15:41:24;4.28;;;2.70;;
50781;SDS011;36749;37.428;-121.972;2023-03-19T15:43:51;4.53;;;2.42;;
50781;SDS011;36749;37.428;-121.972;2023-03-19T15:46:19;6.63;;;2.90;;
50781;SDS011;36749;37.428;-121.972;2023-03-19T15:48:53;4.28;;;2.80;;
50781;SDS011;36749;37.428;-121.972;2023-03-19T15:51:27;8.07;;;3.22;;
50781;SDS011;36749;37.428;-121.972;2023-03-19T15:53:53;4.63;;;2.72;;
50781;SDS011;36749;37.428;-121.972;2023-03-19T15:56:20;5.53;;;3.00;;
50781;SDS011;36749;37.428;-121.972;2023-03-19T15:58:48;4.53;;;2.65;;
50781;SDS011;36749;37.428;-121.972;2023-03-19T16:01:15;5.35;;;2.80;;
50781;SDS011;36749;37.428;-121.972;2023-03-19T16:06:28;6.75;;;2.97;;
50781;SDS011;36749;37.428;-121.972;2023-03-19T16:09:06;6.78;;;3.05;;
50781;SDS011;36749;37.428;-121.972;2023-03-19T16:11:40;4.25;;;2.63;;
50781;SDS011;36749;37.428;-121.972;2023-03-19T16:14:53;7.38;;;2.67;;
50781;SDS011;36749;37.428;-121.972;2023-03-19T16:17:18;3.22;;;2.53;;
50781;SDS011;36749;37.428;-121.972;2023-03-19T16:19:54;6.05;;;2.95;;
50781;SDS011;36749;37.428;-121.972;2023-03-19T16:22:21;5.43;;;2.85;;
50781;SDS011;36749;37.428;-121.972;2023-03-19T16:24:49;5.25;;;2.70;;